createdAt,value
2023-04-20T00:01:16.066Z,9.66
2023-04-20T00:03:53.991Z,9.56
2023-04-20T00:06:33.443Z,9.46
2023-04-20T00:09:11.310Z,9.47
2023-04-20T00:11:47.629Z,9.48
2023-04-20T00:14:24.310Z,9.48
2023-04-20T00:16:55.156Z,9.47
2023-04-20T00:19:33.934Z,9.44
2023-04-20T00:22:11.339Z,9.45
2023-04-20T00:24:48.460Z,9.48
2023-04-20T00:27:25.847Z,9.50
2023-04-20T00:30:02.755Z,9.59
2023-04-20T00:32:39.518Z,9.73
2023-04-20T00:35:16.116Z,9.83
2023-04-20T00:37:53.293Z,9.91
2023-04-20T00:40:27.097Z,9.83
2023-04-20T00:43:15.864Z,9.67
2023-04-20T00:45:54.105Z,9.66
2023-04-20T00:48:32.111Z,9.68
2023-04-20T00:51:10.740Z,9.75
2023-04-20T00:53:48.815Z,9.71
2023-04-20T00:56:25.592Z,9.77
2023-04-20T00:58:59.598Z,9.82
2023-04-20T01:01:34.171Z,9.73
2023-04-20T01:04:10.547Z,9.63
2023-04-20T01:06:48.383Z,9.55
2023-04-20T01:09:25.281Z,9.49
2023-04-20T01:12:03.171Z,9.50
2023-04-20T01:14:40.193Z,9.47
2023-04-20T01:17:17.891Z,9.46
2023-04-20T01:19:55.571Z,9.50
2023-04-20T01:22:32.700Z,9.53
2023-04-20T01:25:11.510Z,9.52
2023-04-20T01:27:48.890Z,9.55
2023-04-20T01:30:26.393Z,9.53
2023-04-20T01:32:59.125Z,9.53
2023-04-20T01:35:34.238Z,9.57
2023-04-20T01:38:11.813Z,9.58
2023-04-20T01:40:49.940Z,9.56
2023-04-20T01:43:27.531Z,9.56
2023-04-20T01:46:06.013Z,9.57
2023-04-20T01:48:42.956Z,9.66
2023-04-20T01:51:20.548Z,9.74
2023-04-20T01:53:58.039Z,9.70
2023-04-20T01:56:34.740Z,9.64
2023-04-20T01:59:12.136Z,9.61
2023-04-20T02:01:49.750Z,9.61
2023-04-20T02:04:27.135Z,9.70
2023-04-20T02:06:57.375Z,9.78
2023-04-20T02:09:35.295Z,9.70
2023-04-20T02:12:13.015Z,9.71
2023-04-20T02:14:49.680Z,9.65
2023-04-20T02:17:27.501Z,9.69
2023-04-20T02:20:07.056Z,9.75
2023-04-20T02:22:44.750Z,9.72
2023-04-20T02:25:22.352Z,9.61
2023-04-20T02:28:00.048Z,9.66
2023-04-20T02:30:37.773Z,9.70
2023-04-20T02:33:15.013Z,9.79
2023-04-20T02:35:52.397Z,9.85
2023-04-20T02:38:31.006Z,9.73
2023-04-20T02:41:09.804Z,9.61
2023-04-20T02:43:41.560Z,9.55
2023-04-20T02:46:18.599Z,9.61
2023-04-20T02:48:56.873Z,9.68
2023-04-20T02:51:34.586Z,9.71
2023-04-20T02:54:11.897Z,9.66
2023-04-20T02:56:48.845Z,9.68
2023-04-20T02:59:25.839Z,9.73
2023-04-20T03:02:01.738Z,9.64
2023-04-20T03:04:39.963Z,9.67
2023-04-20T03:07:17.476Z,9.74
2023-04-20T03:09:54.414Z,9.72
2023-04-20T03:12:32.508Z,9.71
2023-04-20T03:15:11.568Z,9.69
2023-04-20T03:17:48.655Z,9.63
2023-04-20T03:20:20.487Z,9.69
2023-04-20T03:22:57.462Z,9.74
2023-04-20T03:25:34.362Z,9.77
2023-04-20T03:28:12.167Z,9.75
2023-04-20T03:30:48.885Z,9.74
2023-04-20T03:33:27.307Z,9.50
2023-04-20T03:36:06.649Z,9.40
2023-04-20T03:38:44.153Z,9.38
2023-04-20T03:41:21.412Z,9.43
2023-04-20T03:43:58.760Z,9.43
2023-04-20T03:46:37.178Z,9.38
2023-04-20T03:49:15.241Z,9.42
2023-04-20T03:51:52.496Z,9.47
2023-04-20T03:54:25.226Z,9.49
2023-04-20T03:56:59.040Z,9.41
2023-04-20T03:59:37.146Z,9.36
2023-04-20T04:02:14.635Z,9.31
2023-04-20T04:04:52.329Z,9.31
2023-04-20T04:07:29.693Z,9.33
2023-04-20T04:10:07.674Z,9.31
2023-04-20T04:12:44.344Z,9.25
2023-04-20T04:15:23.284Z,9.24
2023-04-20T04:18:01.845Z,9.35
2023-04-20T04:20:39.572Z,9.39
2023-04-20T04:23:16.728Z,9.33
2023-04-20T04:25:54.589Z,9.31
2023-04-20T04:28:33.072Z,9.32
2023-04-20T04:31:09.364Z,9.35
2023-04-20T04:33:41.495Z,9.31
2023-04-20T04:36:20.597Z,9.29
2023-04-20T04:38:57.551Z,9.39
2023-04-20T04:41:35.011Z,9.40
2023-04-20T04:44:12.879Z,9.48
2023-04-20T04:46:51.642Z,9.50
2023-04-20T04:49:30.439Z,9.60
2023-04-20T04:52:10.379Z,9.69
2023-04-20T04:54:48.036Z,9.68
2023-04-20T04:57:26.682Z,9.73
2023-04-20T05:00:12.978Z,9.87
2023-04-20T05:02:49.975Z,9.95
2023-04-20T05:05:27.986Z,9.95
2023-04-20T05:08:06.451Z,10.02
2023-04-20T05:10:44.549Z,10.20
2023-04-20T05:13:21.964Z,10.29
2023-04-20T05:15:59.754Z,10.27
2023-04-20T05:18:37.725Z,10.29
2023-04-20T05:21:15.964Z,10.29
2023-04-20T05:23:54.209Z,10.40
2023-04-20T05:26:26.873Z,10.54
2023-04-20T05:29:02.397Z,10.67
2023-04-20T05:31:40.708Z,10.79
2023-04-20T05:34:19.232Z,10.94
2023-04-20T05:36:57.410Z,11.11
2023-04-20T05:39:36.057Z,11.22
2023-04-20T05:42:14.753Z,11.27
2023-04-20T05:44:53.202Z,11.37
2023-04-20T05:47:30.921Z,11.44
2023-04-20T05:50:11.293Z,11.37
2023-04-20T05:52:49.567Z,11.46
2023-04-20T05:55:28.858Z,11.58
2023-04-20T05:58:08.480Z,11.75
2023-04-20T06:00:47.703Z,11.90
2023-04-20T06:03:26.481Z,12.19
2023-04-20T06:06:06.216Z,12.61
2023-04-20T06:08:44.658Z,12.89
2023-04-20T06:11:24.594Z,13.30
2023-04-20T06:14:02.954Z,14.20
2023-04-20T06:16:40.912Z,14.97
2023-04-20T06:19:19.840Z,15.53
2023-04-20T06:22:00.193Z,16.05
2023-04-20T06:24:42.980Z,15.87
2023-04-20T06:27:21.190Z,16.12
2023-04-20T06:29:59.183Z,16.80
2023-04-20T06:32:38.538Z,17.43
2023-04-20T06:35:17.360Z,18.13
2023-04-20T06:37:57.925Z,18.38
2023-04-20T06:40:37.954Z,18.49
2023-04-20T06:43:16.559Z,18.00
2023-04-20T06:45:52.044Z,18.05
2023-04-20T06:48:32.301Z,18.55
2023-04-20T06:51:05.598Z,18.43
2023-04-20T06:53:43.985Z,18.39
2023-04-20T06:56:22.528Z,18.58
2023-04-20T06:59:01.370Z,18.31
2023-04-20T07:01:40.860Z,17.97
2023-04-20T07:04:19.743Z,17.95
2023-04-20T07:06:58.155Z,18.22
2023-04-20T07:09:36.689Z,18.56
2023-04-20T07:12:16.127Z,18.84
2023-04-20T07:14:55.363Z,18.97
2023-04-20T07:17:35.792Z,18.83
2023-04-20T07:20:14.284Z,18.52
2023-04-20T07:22:52.978Z,18.67
2023-04-20T07:25:33.635Z,19.01
2023-04-20T07:28:12.896Z,19.45
2023-04-20T07:30:51.774Z,19.42
2023-04-20T07:33:30.368Z,19.72
2023-04-20T07:36:09.484Z,20.03
2023-04-20T07:38:48.257Z,20.39
2023-04-20T07:41:27.012Z,20.58
2023-04-20T07:44:06.969Z,20.54
2023-04-20T07:46:46.387Z,20.52
2023-04-20T07:49:24.905Z,20.75
2023-04-20T07:52:15.085Z,21.02
2023-04-20T07:55:02.092Z,21.36
2023-04-20T07:57:42.034Z,21.75
2023-04-20T08:00:21.476Z,22.00
2023-04-20T08:03:00.527Z,21.91
2023-04-20T08:05:39.040Z,21.93
2023-04-20T08:08:19.042Z,21.81
2023-04-20T08:11:00.547Z,21.93
2023-04-20T08:13:40.494Z,21.93
2023-04-20T08:16:20.056Z,21.99
2023-04-20T08:18:58.643Z,21.54
2023-04-20T08:21:36.395Z,20.83
2023-04-20T08:24:14.190Z,20.77
2023-04-20T08:26:51.322Z,20.66
2023-04-20T08:29:29.017Z,20.67
2023-04-20T08:32:10.355Z,20.90
2023-04-20T08:34:48.342Z,20.71
2023-04-20T08:37:27.573Z,21.33
2023-04-20T08:40:06.440Z,21.68
2023-04-20T08:42:44.892Z,22.24
2023-04-20T08:45:22.597Z,22.11
2023-04-20T08:48:06.874Z,22.59
2023-04-20T08:50:48.607Z,22.66
2023-04-20T08:53:26.264Z,22.32
2023-04-20T08:56:05.730Z,21.76
2023-04-20T08:58:43.420Z,21.67
2023-04-20T09:01:34.647Z,21.88
2023-04-20T09:04:28.727Z,22.26
2023-04-20T09:07:07.203Z,22.08
2023-04-20T09:09:55.926Z,21.93
2023-04-20T09:12:30.147Z,21.58
2023-04-20T09:15:07.324Z,21.44
2023-04-20T09:17:45.502Z,20.98
2023-04-20T09:20:34.792Z,20.94
2023-04-20T09:23:22.470Z,21.58
2023-04-20T09:26:01.517Z,22.33
2023-04-20T09:28:46.760Z,22.60
2023-04-20T09:31:29.180Z,22.21
2023-04-20T09:34:08.954Z,21.51
2023-04-20T09:36:54.759Z,21.61
2023-04-20T09:39:35.522Z,21.54
2023-04-20T09:42:16.413Z,21.66
2023-04-20T09:44:56.394Z,21.69
2023-04-20T09:47:38.393Z,21.58
2023-04-20T09:50:26.591Z,21.86
2023-04-20T09:53:10.941Z,22.14
2023-04-20T09:55:50.764Z,22.29
2023-04-20T09:58:29.920Z,21.69
2023-04-20T10:01:11.189Z,21.34
2023-04-20T10:03:50.459Z,21.66
2023-04-20T10:06:35.940Z,22.07
2023-04-20T10:09:27.747Z,21.59
2023-04-20T10:12:16.013Z,20.95
2023-04-20T10:15:02.097Z,20.44
2023-04-20T10:17:42.319Z,20.07
2023-04-20T10:20:29.995Z,20.35
2023-04-20T10:23:12.367Z,20.95
2023-04-20T10:26:01.292Z,21.18
2023-04-20T10:28:47.192Z,20.61
2023-04-20T10:31:37.162Z,20.35
2023-04-20T10:34:16.997Z,20.43
2023-04-20T10:36:56.045Z,20.78
2023-04-20T10:39:36.533Z,20.72
2023-04-20T10:42:17.965Z,20.58
2023-04-20T10:45:00.028Z,20.42
2023-04-20T10:47:38.602Z,20.33
2023-04-20T10:50:23.827Z,20.55
2023-04-20T10:53:02.297Z,20.51
2023-04-20T10:55:42.440Z,20.34
2023-04-20T10:58:30.487Z,20.51
2023-04-20T11:01:09.958Z,20.67
2023-04-20T11:03:52.868Z,20.59
2023-04-20T11:06:32.617Z,20.38
2023-04-20T11:09:31.114Z,20.29
2023-04-20T11:12:15.592Z,20.30
2023-04-20T11:15:03.860Z,20.21
2023-04-20T11:17:50.771Z,20.16
2023-04-20T11:20:32.042Z,20.31
2023-04-20T11:23:11.082Z,20.24
2023-04-20T11:26:05.486Z,20.16
2023-04-20T11:28:56.274Z,20.27
2023-04-20T11:31:35.848Z,20.39
2023-04-20T11:34:24.214Z,20.58
2023-04-20T11:37:13.497Z,20.39
2023-04-20T11:40:02.088Z,20.32
2023-04-20T11:42:35.544Z,20.20
2023-04-20T11:45:13.351Z,20.04
2023-04-20T11:47:53.292Z,19.97
2023-04-20T11:50:32.070Z,20.26
2023-04-20T11:53:16.919Z,20.53
2023-04-20T11:55:54.470Z,20.52
2023-04-20T11:58:33.511Z,20.45
2023-04-20T12:01:13.833Z,20.33
2023-04-20T12:03:52.100Z,20.20
2023-04-20T12:06:34.713Z,19.97
2023-04-20T12:09:14.737Z,19.81
2023-04-20T12:11:54.978Z,19.67
2023-04-20T12:14:35.700Z,19.52
2023-04-20T12:17:13.734Z,19.46
2023-04-20T12:19:53.256Z,19.37
2023-04-20T12:22:33.190Z,19.54
2023-04-20T12:25:14.525Z,19.72
2023-04-20T12:27:53.800Z,19.96
2023-04-20T12:30:37.312Z,20.24
2023-04-20T12:33:17.483Z,20.49
2023-04-20T12:35:56.609Z,20.65
2023-04-20T12:38:38.127Z,20.74
2023-04-20T12:41:24.360Z,20.82
2023-04-20T12:44:20.776Z,20.98
2023-04-20T12:47:06.265Z,21.18
2023-04-20T12:49:48.347Z,21.11
2023-04-20T12:52:31.874Z,21.09
2023-04-20T12:55:16.213Z,20.94
2023-04-20T12:57:57.266Z,20.75
2023-04-20T13:00:38.835Z,20.56
2023-04-20T13:03:18.805Z,20.51
2023-04-20T13:05:55.784Z,20.53
2023-04-20T13:08:38.491Z,20.55
2023-04-20T13:11:14.453Z,20.52
2023-04-20T13:13:52.590Z,20.44
2023-04-20T13:16:31.034Z,20.38
2023-04-20T13:19:10.248Z,20.26
2023-04-20T13:21:48.483Z,20.25
2023-04-20T13:24:26.902Z,20.30
2023-04-20T13:27:06.788Z,20.27
2023-04-20T13:29:45.912Z,20.31
2023-04-20T13:32:24.074Z,20.53
2023-04-20T13:35:02.848Z,20.81
2023-04-20T13:37:41.600Z,21.07
2023-04-20T13:40:20.946Z,21.07
2023-04-20T13:42:59.831Z,20.64
2023-04-20T13:45:38.230Z,20.45
2023-04-20T13:48:16.886Z,20.42
2023-04-20T13:50:55.227Z,20.33
2023-04-20T13:53:33.172Z,20.27
2023-04-20T13:56:11.773Z,20.20
2023-04-20T13:58:49.481Z,20.07
2023-04-20T14:01:21.537Z,20.02
2023-04-20T14:03:58.326Z,20.02
2023-04-20T14:06:36.967Z,20.04
2023-04-20T14:09:13.929Z,19.94
2023-04-20T14:11:54.817Z,19.83
2023-04-20T14:14:33.537Z,19.74
2023-04-20T14:17:13.172Z,19.75
2023-04-20T14:19:52.177Z,19.81
2023-04-20T14:22:37.257Z,19.94
2023-04-20T14:25:14.619Z,20.22
2023-04-20T14:27:51.778Z,20.49
2023-04-20T14:30:29.848Z,20.58
2023-04-20T14:33:07.748Z,20.62
2023-04-20T14:35:46.630Z,20.50
2023-04-20T14:38:17.423Z,20.34
2023-04-20T14:40:55.435Z,20.20
2023-04-20T14:43:34.980Z,20.01
2023-04-20T14:46:14.478Z,19.84
2023-04-20T14:48:52.341Z,19.70
2023-04-20T14:51:30.248Z,19.64
2023-04-20T14:54:02.349Z,19.63
2023-04-20T14:56:40.547Z,19.66
2023-04-20T14:59:18.753Z,19.68
2023-04-20T15:02:02.761Z,19.85
2023-04-20T15:04:42.198Z,20.01
2023-04-20T15:07:19.792Z,20.18
2023-04-20T15:09:57.736Z,20.29
2023-04-20T15:12:36.954Z,20.22
2023-04-20T15:15:15.820Z,20.11
2023-04-20T15:17:54.548Z,20.02
2023-04-20T15:20:31.516Z,19.94
2023-04-20T15:23:10.116Z,19.88
2023-04-20T15:25:48.215Z,19.81
2023-04-20T15:28:26.083Z,19.68
2023-04-20T15:31:03.940Z,19.58
2023-04-20T15:33:44.099Z,19.51
2023-04-20T15:36:26.588Z,19.38
2023-04-20T15:39:02.666Z,19.35
2023-04-20T15:41:43.014Z,19.36
2023-04-20T15:44:22.608Z,19.47
2023-04-20T15:47:00.013Z,19.56
2023-04-20T15:49:42.061Z,19.61
2023-04-20T15:52:18.960Z,19.63
2023-04-20T15:54:57.129Z,19.58
2023-04-20T15:57:34.831Z,19.46
2023-04-20T16:00:12.313Z,19.36
2023-04-20T16:02:42.983Z,19.26
2023-04-20T16:05:20.737Z,19.18
2023-04-20T16:07:58.485Z,19.16
2023-04-20T16:10:35.940Z,19.08
2023-04-20T16:13:14.060Z,19.01
2023-04-20T16:15:52.204Z,18.93
2023-04-20T16:18:30.119Z,18.80
2023-04-20T16:21:07.535Z,18.68
2023-04-20T16:23:45.594Z,18.61
2023-04-20T16:26:30.275Z,18.56
2023-04-20T16:29:09.119Z,18.55
2023-04-20T16:31:46.855Z,18.53
2023-04-20T16:34:24.860Z,18.51
2023-04-20T16:37:02.411Z,18.48
2023-04-20T16:39:41.102Z,18.44
2023-04-20T16:42:18.288Z,18.37
2023-04-20T16:44:55.626Z,18.31
2023-04-20T16:47:33.963Z,18.25
2023-04-20T16:50:07.777Z,18.18
2023-04-20T16:52:43.464Z,18.13
2023-04-20T16:55:21.798Z,18.06
2023-04-20T16:58:03.372Z,17.97
2023-04-20T17:00:41.848Z,17.96
2023-04-20T17:03:19.419Z,17.89
2023-04-20T17:05:57.332Z,17.84
2023-04-20T17:08:38.018Z,17.79
2023-04-20T17:11:21.319Z,17.73
2023-04-20T17:14:00.120Z,17.68
2023-04-20T17:16:38.438Z,17.64
2023-04-20T17:19:16.048Z,17.58
2023-04-20T17:21:53.788Z,17.52
2023-04-20T17:24:31.292Z,17.46
2023-04-20T17:27:09.283Z,17.37
2023-04-20T17:29:48.014Z,17.30
2023-04-20T17:32:25.377Z,17.25
2023-04-20T17:35:03.023Z,17.20
2023-04-20T17:37:41.020Z,17.14
2023-04-20T17:40:19.037Z,17.07
2023-04-20T17:42:56.792Z,17.02
2023-04-20T17:45:31.785Z,16.97
2023-04-20T17:48:06.004Z,16.91
2023-04-20T17:50:49.270Z,16.84
2023-04-20T17:53:25.049Z,16.78
2023-04-20T17:56:05.000Z,16.72
2023-04-20T17:58:43.025Z,16.65
2023-04-20T18:01:21.434Z,16.59
2023-04-20T18:03:59.159Z,16.52
2023-04-20T18:06:38.564Z,16.46
2023-04-20T18:09:15.854Z,16.40
2023-04-20T18:11:54.385Z,16.32
2023-04-20T18:14:32.302Z,16.24
2023-04-20T18:17:11.618Z,16.17
2023-04-20T18:19:49.512Z,16.10
2023-04-20T18:22:28.157Z,15.99
2023-04-20T18:25:07.096Z,15.97
2023-04-20T18:27:45.805Z,15.89
2023-04-20T18:30:23.358Z,15.82
2023-04-20T18:33:02.019Z,15.76
2023-04-20T18:35:40.158Z,15.70
2023-04-20T18:38:18.913Z,15.64
2023-04-20T18:40:56.922Z,15.59
2023-04-20T18:43:27.542Z,15.52
2023-04-20T18:46:06.474Z,15.46
2023-04-20T18:48:44.381Z,15.39
2023-04-20T18:51:25.362Z,15.33
2023-04-20T18:54:01.708Z,15.26
2023-04-20T18:56:40.103Z,15.17
2023-04-20T18:59:18.881Z,15.08
2023-04-20T19:01:58.000Z,15.01
2023-04-20T19:04:36.638Z,14.94
2023-04-20T19:07:15.438Z,14.85
2023-04-20T19:09:53.882Z,14.76
2023-04-20T19:12:34.134Z,14.68
2023-04-20T19:15:13.899Z,14.62
2023-04-20T19:17:50.729Z,14.55
2023-04-20T19:20:29.686Z,14.47
2023-04-20T19:23:07.580Z,14.39
2023-04-20T19:25:45.890Z,14.33
2023-04-20T19:28:24.576Z,14.26
2023-04-20T19:31:02.501Z,14.18
2023-04-20T19:33:39.971Z,14.11
2023-04-20T19:36:12.610Z,14.04
2023-04-20T19:38:47.497Z,13.99
2023-04-20T19:41:23.304Z,13.94
2023-04-20T19:44:02.752Z,13.87
2023-04-20T19:46:41.173Z,13.81
2023-04-20T19:49:20.608Z,13.75
2023-04-20T19:51:59.015Z,13.70
2023-04-20T19:54:37.360Z,13.66
2023-04-20T19:57:15.428Z,13.62
2023-04-20T19:59:53.264Z,13.58
2023-04-20T20:02:31.681Z,13.54
2023-04-20T20:05:11.203Z,13.49
2023-04-20T20:07:50.454Z,13.44
2023-04-20T20:10:28.843Z,13.37
2023-04-20T20:13:08.064Z,13.33
2023-04-20T20:15:46.934Z,13.28
2023-04-20T20:18:25.397Z,13.22
2023-04-20T20:21:04.002Z,13.15
2023-04-20T20:23:42.411Z,13.11
2023-04-20T20:26:21.501Z,13.07
2023-04-20T20:28:54.558Z,13.03
2023-04-20T20:31:29.153Z,12.99
2023-04-20T20:34:09.167Z,12.95
2023-04-20T20:36:48.822Z,12.90
2023-04-20T20:39:26.379Z,12.88
2023-04-20T20:42:05.908Z,12.85
2023-04-20T20:44:47.494Z,12.81
2023-04-20T20:47:25.259Z,12.77
2023-04-20T20:50:03.382Z,12.74
2023-04-20T20:52:41.568Z,12.70
2023-04-20T20:55:20.032Z,12.64
2023-04-20T20:57:57.459Z,12.60
2023-04-20T21:00:36.005Z,12.54
2023-04-20T21:03:13.758Z,12.50
2023-04-20T21:05:58.515Z,12.43
2023-04-20T21:08:36.251Z,12.37
2023-04-20T21:11:14.254Z,12.33
2023-04-20T21:13:52.523Z,12.30
2023-04-20T21:16:30.568Z,12.26
2023-04-20T21:19:08.228Z,12.21
2023-04-20T21:21:45.789Z,12.16
2023-04-20T21:24:23.599Z,12.13
2023-04-20T21:26:53.805Z,12.08
2023-04-20T21:29:31.013Z,12.05
2023-04-20T21:32:10.672Z,12.01
2023-04-20T21:34:48.877Z,11.99
2023-04-20T21:37:26.561Z,11.97
2023-04-20T21:40:04.275Z,11.94
2023-04-20T21:42:41.944Z,11.92
2023-04-20T21:45:19.814Z,11.89
2023-04-20T21:47:57.394Z,11.87
2023-04-20T21:50:35.873Z,11.83
2023-04-20T21:53:14.088Z,11.80
2023-04-20T21:55:52.353Z,11.77
2023-04-20T21:58:30.032Z,11.74
2023-04-20T22:01:08.867Z,11.69
2023-04-20T22:03:46.237Z,11.67
2023-04-20T22:06:24.063Z,11.65
2023-04-20T22:08:54.406Z,11.60
2023-04-20T22:11:32.238Z,11.56
2023-04-20T22:14:10.690Z,11.53
2023-04-20T22:16:48.852Z,11.49
2023-04-20T22:19:27.200Z,11.44
2023-04-20T22:22:04.853Z,11.41
2023-04-20T22:24:43.478Z,11.37
2023-04-20T22:27:20.898Z,11.34
2023-04-20T22:29:57.859Z,11.31
2023-04-20T22:32:33.011Z,11.28
2023-04-20T22:35:12.001Z,11.26
2023-04-20T22:37:49.316Z,11.23
2023-04-20T22:40:27.328Z,11.20
2023-04-20T22:43:05.117Z,11.17
2023-04-20T22:45:42.427Z,11.14
2023-04-20T22:48:15.081Z,11.10
2023-04-20T22:50:50.129Z,11.04
2023-04-20T22:53:30.056Z,11.00
2023-04-20T22:56:10.854Z,10.95
2023-04-20T22:58:47.658Z,10.89
2023-04-20T23:01:25.576Z,10.83
2023-04-20T23:04:02.489Z,10.79
2023-04-20T23:06:40.069Z,10.77
2023-04-20T23:09:23.125Z,10.74
2023-04-20T23:12:00.728Z,10.71
2023-04-20T23:14:42.790Z,10.67
2023-04-20T23:17:20.465Z,10.63
2023-04-20T23:19:57.095Z,10.58
2023-04-20T23:22:34.183Z,10.55
2023-04-20T23:25:12.391Z,10.52
2023-04-20T23:27:49.893Z,10.47
2023-04-20T23:30:27.642Z,10.43
2023-04-20T23:33:05.018Z,10.39
2023-04-20T23:35:43.039Z,10.34
2023-04-20T23:38:13.383Z,10.31
2023-04-20T23:40:51.353Z,10.28
2023-04-20T23:43:29.407Z,10.25
2023-04-20T23:46:08.174Z,10.20
2023-04-20T23:48:40.677Z,10.16
2023-04-20T23:51:18.151Z,10.12
2023-04-20T23:53:56.001Z,10.06
2023-04-20T23:56:33.677Z,10.00
2023-04-20T23:59:11.879Z,9.96
